Time;durP1;ratioP1;P1;durP2;ratioP2;P2;SDS_P1;SDS_P2;PMS_P1;PMS_P2;Temp;Humidity;BMP_temperature;BMP_pressure;BME280_temperature;BME280_humidity;BME280_pressure;Samples;Min_cycle;Max_cycle;Signal;HPM_P1;HPM_P2
2021/06/08 06:41:52;;;;;;;932.92;867.63;;;19.50;99.90;;;;;;5102065;27;20537;-74
2021/06/08 06:44:20;;;;;;;966.50;896.20;;;18.10;99.90;;;;;;5069317;28;20257;-74
2021/06/08 06:46:48;;;;;;;1013.85;936.70;;;18.30;99.90;;;;;;5070529;28;20199;-74
2021/06/08 06:49:13;;;;;;;983.03;909.05;;;18.50;99.90;;;;;;5070504;28;20172;-74
2021/06/08 06:51:44;;;;;;;1004.72;928.00;;;18.50;99.90;;;;;;5070502;28;20172;-74
2021/06/08 06:54:09;;;;;;;1064.57;980.30;;;18.60;99.90;;;;;;5070495;28;20259;-75
2021/06/08 06:56:35;;;;;;;1019.05;941.78;;;18.60;99.90;;;;;;5070450;28;20199;-75
2021/06/08 06:59:04;;;;;;;1089.07;996.15;;;18.70;99.90;;;;;;5070335;28;20206;-70
2021/06/08 07:01:31;;;;;;;987.20;915.78;;;18.80;99.90;;;;;;5070177;28;20203;-74
2021/06/08 07:03:59;;;;;;;1077.85;991.58;;;18.60;99.90;;;;;;5068966;28;20529;-72
2021/06/08 07:06:26;;;;;;;988.15;915.95;;;18.70;99.90;;;;;;5070190;28;20172;-74
2021/06/08 07:08:54;;;;;;;1042.57;962.78;;;18.70;99.90;;;;;;5070202;28;20699;-74
2021/06/08 07:11:20;;;;;;;1098.63;999.47;;;18.80;99.90;;;;;;5070112;28;20561;-72
2021/06/08 07:13:47;;;;;;;974.75;905.40;;;18.80;99.90;;;;;;5070006;28;20255;-73
2021/06/08 07:16:14;;;;;;;1021.33;945.58;;;18.90;99.90;;;;;;5068767;28;20172;-73
2021/06/08 07:18:42;;;;;;;942.67;877.45;;;18.90;99.90;;;;;;5070005;28;20691;-75
2021/06/08 07:21:08;;;;;;;1027.10;950.92;;;18.90;99.90;;;;;;5069813;28;20558;-74
2021/06/08 07:23:35;;;;;;;1018.58;944.60;;;19.10;99.90;;;;;;5069823;28;20183;-74
2021/06/08 07:26:00;;;;;;;981.53;911.83;;;19.20;99.90;;;;;;5069805;28;20581;-75
2021/06/08 07:28:27;;;;;;;888.83;830.00;;;19.20;99.90;;;;;;5069694;28;20195;-75
2021/06/08 07:30:54;;;;;;;854.20;799.63;;;19.30;99.90;;;;;;5069573;28;20613;-76
2021/06/08 07:33:48;;;;;;;881.78;824.70;;;19.30;99.90;;;;;;5069617;28;20172;-71
2021/06/08 07:36:17;;;;;;;931.45;867.83;;;19.40;99.90;;;;;;5068344;28;20180;-68
2021/06/08 07:39:09;;;;;;;943.58;880.03;;;19.40;99.90;;;;;;5069501;28;20164;-69
2021/06/08 07:41:42;;;;;;;946.97;882.58;;;19.50;99.90;;;;;;5069558;28;20613;-69
2021/06/08 07:44:15;;;;;;;856.92;801.85;;;19.50;99.90;;;;;;5069427;28;20164;-69
2021/06/08 07:46:42;;;;;;;812.10;761.20;;;19.60;99.90;;;;;;5069341;28;20188;-68
2021/06/08 07:49:09;;;;;;;847.22;793.22;;;19.60;99.90;;;;;;5068033;28;20176;-71
2021/06/08 07:51:35;;;;;;;847.45;792.55;;;19.60;99.90;;;;;;5064176;28;20164;-70
2021/06/08 07:54:02;;;;;;;630.88;594.30;;;19.70;99.90;;;;;;5055987;28;20653;-71
2021/06/08 07:56:29;;;;;;;874.63;817.40;;;19.70;99.90;;;;;;5056003;28;20643;-71
2021/06/08 07:58:55;;;;;;;757.65;710.92;;;19.70;99.90;;;;;;5055932;28;20188;-71
2021/06/08 08:01:21;;;;;;;753.63;707.55;;;19.70;99.90;;;;;;5054505;28;20204;-70
2021/06/08 08:03:48;;;;;;;687.05;645.90;;;19.80;99.90;;;;;;5055773;28;20302;-70
2021/06/08 08:06:16;;;;;;;674.42;634.30;;;19.90;99.90;;;;;;5054448;28;20633;-70
2021/06/08 08:08:43;;;;;;;541.72;512.47;;;19.90;99.90;;;;;;5054456;28;20671;-70
2021/06/08 08:11:15;;;;;;;517.03;489.80;;;19.90;99.90;;;;;;5055591;28;20172;-70
2021/06/08 08:13:47;;;;;;;486.75;461.50;;;19.90;99.90;;;;;;5055719;28;20175;-70
2021/06/08 08:16:14;;;;;;;483.48;458.38;;;20.00;99.90;;;;;;5055598;28;20210;-70
2021/06/08 08:18:42;;;;;;;518.22;490.50;;;20.00;99.90;;;;;;5054080;28;20268;-70
2021/06/08 08:21:10;;;;;;;556.90;526.50;;;20.00;99.90;;;;;;5055473;28;20193;-70
2021/06/08 08:23:37;;;;;;;541.47;512.00;;;20.00;99.90;;;;;;5055448;28;20172;-70
2021/06/08 08:26:05;;;;;;;493.15;467.67;;;20.10;99.90;;;;;;5055379;28;20274;-70
2021/06/08 08:28:33;;;;;;;494.92;469.25;;;20.20;99.90;;;;;;5055367;28;20252;-69
2021/06/08 08:31:02;;;;;;;424.17;403.10;;;20.20;99.90;;;;;;5055270;28;20594;-65
2021/06/08 08:33:29;;;;;;;344.38;327.30;;;20.30;99.90;;;;;;5054013;28;20184;-69
2021/06/08 08:35:55;;;;;;;406.58;386.75;;;20.30;99.90;;;;;;5055264;28;20311;-70
2021/06/08 08:38:21;;;;;;;626.83;590.67;;;20.20;99.90;;;;;;5055177;28;20626;-70
2021/06/08 08:40:46;;;;;;;397.35;377.70;;;20.30;99.90;;;;;;5054790;28;20274;-70
2021/06/08 08:43:13;;;;;;;580.55;548.22;;;20.20;99.90;;;;;;5053845;28;20672;-70
2021/06/08 08:45:38;;;;;;;528.67;500.42;;;20.40;99.90;;;;;;5055111;28;20215;-70
2021/06/08 08:48:05;;;;;;;357.55;340.65;;;20.50;99.90;;;;;;5053810;28;20200;-72
2021/06/08 08:50:31;;;;;;;350.58;333.90;;;20.50;99.90;;;;;;5055030;28;20194;-72
2021/06/08 08:53:02;;;;;;;389.73;370.85;;;20.60;99.90;;;;;;5054909;28;20172;-73
2021/06/08 08:55:34;;;;;;;313.58;299.05;;;20.80;99.90;;;;;;5054899;28;20171;-72
2021/06/08 08:58:01;;;;;;;316.70;301.83;;;20.80;99.90;;;;;;5054879;28;20191;-70
2021/06/08 09:00:30;;;;;;;355.67;338.83;;;20.90;99.90;;;;;;5054721;28;20199;-70
2021/06/08 09:02:58;;;;;;;237.20;226.32;;;20.90;99.90;;;;;;5053965;28;20176;-68
2021/06/08 09:05:25;;;;;;;340.60;323.95;;;20.80;99.90;;;;;;5054324;28;20176;-67
2021/06/08 09:07:51;;;;;;;242.73;231.65;;;20.90;99.90;;;;;;5053363;28;20195;-69
2021/06/08 09:10:18;;;;;;;242.43;231.18;;;20.90;99.90;;;;;;5054586;28;20204;-69
2021/06/08 09:12:44;;;;;;;373.77;355.75;;;20.90;99.90;;;;;;5053278;28;20638;-69
2021/06/08 09:15:10;;;;;;;381.60;363.02;;;21.00;99.90;;;;;;5054502;28;20211;-69
2021/06/08 09:17:39;;;;;;;416.42;395.52;;;21.00;99.90;;;;;;5054508;28;20335;-69
2021/06/08 09:20:06;;;;;;;265.52;253.00;;;21.10;99.90;;;;;;5054322;28;20188;-69
2021/06/08 09:22:52;;;;;;;263.58;251.27;;;21.10;99.90;;;;;;5054400;28;20222;-68
2021/06/08 09:25:39;;;;;;;226.55;216.25;;;21.10;99.90;;;;;;5052620;28;20185;-68
2021/06/08 09:28:29;;;;;;;179.82;171.50;;;21.10;99.90;;;;;;5054287;28;20164;-68
2021/06/08 09:31:04;;;;;;;219.23;209.18;;;21.10;99.90;;;;;;5053019;28;20169;-68
2021/06/08 09:33:37;;;;;;;243.60;232.30;;;21.10;99.90;;;;;;5054134;28;20579;-68
2021/06/08 09:36:06;;;;;;;261.48;249.45;;;21.10;99.90;;;;;;5052788;28;20168;-69
2021/06/08 09:38:38;;;;;;;267.52;255.18;;;21.20;99.90;;;;;;5054003;28;20243;-69
2021/06/08 09:41:18;;;;;;;198.88;189.52;;;21.30;99.90;;;;;;5053697;28;20580;-70
2021/06/08 09:43:48;;;;;;;246.15;234.82;;;21.30;99.90;;;;;;5052681;28;20252;-68
2021/06/08 09:46:14;;;;;;;239.60;228.55;;;21.30;99.90;;;;;;5053748;28;20278;-68
2021/06/08 09:49:06;;;;;;;187.15;178.45;;;21.30;99.90;;;;;;5053634;28;20241;-69
2021/06/08 09:51:58;;;;;;;199.23;190.02;;;21.30;99.90;;;;;;5051802;28;20180;-69
2021/06/08 09:54:32;;;;;;;233.02;222.38;;;21.20;99.90;;;;;;5053797;28;20172;-68
2021/06/08 09:57:15;;;;;;;195.57;186.55;;;21.30;99.90;;;;;;5053806;28;20638;-68
2021/06/08 09:59:45;;;;;;;237.90;227.02;;;21.30;99.90;;;;;;5052395;28;20577;-69
2021/06/08 10:02:22;;;;;;;182.85;174.35;;;21.40;99.90;;;;;;5052390;28;20539;-68
2021/06/08 10:04:47;;;;;;;182.18;173.35;;;21.50;99.90;;;;;;5053517;28;20271;-68
2021/06/08 10:07:42;;;;;;;171.85;163.60;;;21.60;99.90;;;;;;5053570;28;20196;-68
2021/06/08 10:10:13;;;;;;;286.77;273.73;;;21.70;99.90;;;;;;5044750;28;20189;-68
2021/06/08 10:13:00;;;;;;;297.35;283.65;;;21.50;99.90;;;;;;5052163;28;20187;-68
2021/06/08 10:15:28;;;;;;;303.40;289.25;;;21.50;99.90;;;;;;5053224;28;20172;-68
2021/06/08 10:17:59;;;;;;;225.10;214.90;;;21.40;99.90;;;;;;5053401;28;20176;-69
2021/06/08 10:20:27;;;;;;;240.27;229.30;;;21.30;99.90;;;;;;5053306;28;20195;-69
2021/06/08 10:22:53;;;;;;;204.23;194.85;;;21.30;99.90;;;;;;5053252;28;20540;-69
2021/06/08 10:25:19;;;;;;;214.18;204.43;;;21.40;99.90;;;;;;5052042;28;20255;-70
2021/06/08 10:27:45;;;;;;;214.10;204.32;;;21.40;99.90;;;;;;5053185;28;20253;-70
2021/06/08 10:30:11;;;;;;;227.75;217.10;;;21.30;99.90;;;;;;5053226;28;20208;-71
2021/06/08 10:32:38;;;;;;;238.93;228.02;;;21.40;99.90;;;;;;5053252;28;20172;-71
2021/06/08 10:35:05;;;;;;;221.88;211.68;;;21.40;99.90;;;;;;5053297;28;20168;-68
2021/06/08 10:37:32;;;;;;;234.45;223.63;;;21.40;99.90;;;;;;5053134;28;20168;-69
2021/06/08 10:40:00;;;;;;;237.60;226.63;;;21.30;99.90;;;;;;5052836;28;20677;-72
2021/06/08 10:42:27;;;;;;;250.23;238.75;;;21.40;99.90;;;;;;5053149;28;20245;-72
2021/06/08 10:45:04;;;;;;;215.68;205.80;;;21.60;99.90;;;;;;5053135;28;20248;-72
2021/06/08 10:47:36;;;;;;;207.85;198.35;;;21.80;99.90;;;;;;5053220;28;20164;-70
2021/06/08 10:50:22;;;;;;;231.45;220.80;;;21.90;99.90;;;;;;5053122;28;20641;-70
2021/06/08 10:52:48;;;;;;;279.55;266.75;;;21.70;99.90;;;;;;5053119;28;20177;-69
2021/06/08 10:55:15;;;;;;;280.35;267.42;;;21.50;99.90;;;;;;5053038;28;20171;-70
2021/06/08 10:57:45;;;;;;;211.85;202.20;;;21.50;99.90;;;;;;5053057;28;20192;-65
2021/06/08 11:00:26;;;;;;;241.45;230.10;;;21.60;99.90;;;;;;5052785;28;20234;-70
2021/06/08 11:02:59;;;;;;;244.73;233.52;;;21.70;99.90;;;;;;5052776;28;20168;-68
2021/06/08 11:05:54;;;;;;;256.52;244.75;;;21.80;99.90;;;;;;5052919;28;20153;-67
2021/06/08 11:08:40;;;;;;;247.38;235.98;;;21.80;99.90;;;;;;5052971;28;20172;-67
2021/06/08 11:11:05;;;;;;;241.02;229.95;;;21.80;99.90;;;;;;5052840;28;20251;-68
2021/06/08 11:13:31;;;;;;;210.38;200.68;;;21.80;99.90;;;;;;5052838;28;20207;-68
2021/06/08 11:16:27;;;;;;;306.30;291.98;;;22.00;99.90;;;;;;5052808;28;20168;-67
2021/06/08 11:18:52;;;;;;;212.35;202.55;;;22.00;99.90;;;;;;5052840;28;20577;-68
2021/06/08 11:21:26;;;;;;;197.25;188.20;;;22.00;99.90;;;;;;5052664;28;20235;-67
2021/06/08 11:23:55;;;;;;;220.45;209.98;;;22.00;99.90;;;;;;5051395;28;20645;-68
2021/06/08 11:26:50;;;;;;;306.25;292.23;;;22.20;99.90;;;;;;5053070;28;20175;-67
2021/06/08 11:29:46;;;;;;;298.45;284.75;;;22.20;99.90;;;;;;5056651;28;20247;-67
2021/06/08 11:32:42;;;;;;;212.68;202.50;;;22.10;99.90;;;;;;5056393;28;20172;-68
2021/06/08 11:35:09;;;;;;;316.40;301.77;;;22.20;99.90;;;;;;5056361;28;20183;-71
2021/06/08 11:37:53;;;;;;;226.43;215.73;;;22.00;99.90;;;;;;5056373;28;20168;-68
2021/06/08 11:40:40;;;;;;;229.13;218.63;;;21.80;99.90;;;;;;5055982;28;20224;-68
2021/06/08 11:43:10;;;;;;;228.68;218.07;;;21.90;99.90;;;;;;5056294;28;20230;-68
2021/06/08 11:45:41;;;;;;;300.02;286.35;;;22.00;99.90;;;;;;5056197;28;20168;-68
2021/06/08 11:48:28;;;;;;;284.85;271.75;;;22.00;99.90;;;;;;5056108;28;20261;-68
2021/06/08 11:50:54;;;;;;;307.63;293.13;;;22.10;99.90;;;;;;5056084;28;20168;-77
2021/06/08 11:53:20;;;;;;;313.80;299.35;;;22.10;99.90;;;;;;5056082;28;20649;-77
2021/06/08 11:56:11;;;;;;;223.98;213.73;;;22.00;99.90;;;;;;5055989;28;20160;-80
2021/06/08 11:58:41;;;;;;;303.65;289.73;;;22.20;99.90;;;;;;5055965;28;20177;-79
2021/06/08 12:01:28;;;;;;;292.27;278.77;;;22.20;99.90;;;;;;5054474;28;20649;-79
2021/06/08 12:03:59;;;;;;;320.80;306.02;;;22.20;99.90;;;;;;5055749;28;20739;-79
2021/06/08 12:06:51;;;;;;;279.10;266.35;;;22.20;99.90;;;;;;5055796;28;20168;-80
2021/06/08 12:09:17;;;;;;;327.38;311.95;;;22.10;99.90;;;;;;5055706;28;20239;-80
2021/06/08 12:11:43;;;;;;;329.20;313.73;;;22.20;99.90;;;;;;5055641;28;20576;-84
2021/06/08 12:14:09;;;;;;;349.45;332.95;;;22.20;99.90;;;;;;5054484;28;20215;-83
2021/06/08 12:16:35;;;;;;;394.23;375.27;;;22.20;99.90;;;;;;5055652;28;20200;-82
2021/06/08 12:19:07;;;;;;;311.10;296.73;;;22.30;99.90;;;;;;5055537;28;20164;-81
2021/06/08 12:21:33;;;;;;;314.90;300.50;;;22.20;99.90;;;;;;5055482;28;20227;-82
2021/06/08 12:23:59;;;;;;;366.83;349.55;;;22.60;99.90;;;;;;5055524;28;20388;-83
2021/06/08 12:26:25;;;;;;;429.50;408.58;;;23.00;99.90;;;;;;5054072;28;20198;-83
2021/06/08 12:29:09;;;;;;;399.50;380.15;;;23.40;99.90;;;;;;5055457;28;20204;-81
2021/06/08 12:31:36;;;;;;;409.95;390.15;;;23.60;99.90;;;;;;5054107;28;20638;-81
2021/06/08 12:34:16;;;;;;;401.52;382.40;;;23.90;99.90;;;;;;5055268;28;20174;-81
2021/06/08 12:36:43;;;;;;;385.27;366.88;;;24.20;99.90;;;;;;5055164;28;20168;-77
2021/06/08 12:39:16;;;;;;;391.63;373.02;;;24.50;99.90;;;;;;5053829;28;20176;-75
2021/06/08 12:41:43;;;;;;;440.42;418.67;;;24.80;99.90;;;;;;5055159;28;20215;-73
2021/06/08 12:44:09;;;;;;;528.35;500.55;;;25.00;99.90;;;;;;5055217;28;20640;-75
2021/06/08 12:46:39;;;;;;;514.45;487.48;;;25.00;99.90;;;;;;5055023;28;20172;-71
2021/06/08 12:49:13;;;;;;;498.30;472.92;;;24.80;99.90;;;;;;5055079;28;20618;-71
2021/06/08 12:51:51;;;;;;;529.13;501.25;;;24.70;99.90;;;;;;5053753;28;20212;-73
2021/06/08 12:54:30;;;;;;;426.60;405.85;;;24.50;99.90;;;;;;5054933;28;20175;-71
2021/06/08 12:56:57;;;;;;;425.50;404.52;;;24.20;99.90;;;;;;5053547;28;20208;-71
2021/06/08 12:59:26;;;;;;;404.20;384.73;;;24.00;99.90;;;;;;5054835;28;20168;-74
2021/06/08 13:01:52;;;;;;;469.35;445.88;;;24.00;99.90;;;;;;5054705;28;20193;-72
2021/06/08 13:04:20;;;;;;;401.10;381.77;;;24.00;99.90;;;;;;5054775;28;20164;-73
2021/06/08 13:06:48;;;;;;;459.90;437.00;;;24.00;99.90;;;;;;5054689;28;20160;-70
2021/06/08 13:09:14;;;;;;;538.35;509.75;;;24.10;99.90;;;;;;5054668;28;20169;-72
2021/06/08 13:11:39;;;;;;;342.00;326.05;;;24.10;99.90;;;;;;5054601;28;20263;-70
2021/06/08 13:14:07;;;;;;;430.67;409.38;;;24.30;99.90;;;;;;5053244;28;20211;-73
2021/06/08 13:16:37;;;;;;;345.35;328.85;;;24.40;99.90;;;;;;5054481;28;20176;-71
2021/06/08 13:19:17;;;;;;;523.13;495.70;;;24.60;99.90;;;;;;5054455;28;20244;-73
2021/06/08 13:21:43;;;;;;;479.73;455.35;;;25.00;99.90;;;;;;5054271;28;20657;-71
2021/06/08 13:24:24;;;;;;;485.23;460.50;;;25.00;99.90;;;;;;5054318;28;20179;-72
2021/06/08 13:26:51;;;;;;;503.55;476.88;;;25.00;99.90;;;;;;5054309;28;20176;-76
2021/06/08 13:29:24;;;;;;;524.25;496.65;;;24.90;99.90;;;;;;5054313;28;20626;-76
2021/06/08 13:31:55;;;;;;;518.67;491.55;;;24.60;99.90;;;;;;5052899;28;20180;-74
2021/06/08 13:34:29;;;;;;;528.55;500.75;;;24.40;99.90;;;;;;5054180;28;20208;-73
2021/06/08 13:37:05;;;;;;;496.50;470.92;;;24.40;99.90;;;;;;5054138;28;20165;-73
2021/06/08 13:39:39;;;;;;;539.30;510.10;;;24.60;99.90;;;;;;5053768;28;20216;-73
2021/06/08 13:42:19;;;;;;;508.40;481.58;;;24.80;99.90;;;;;;5054025;28;20176;-73
2021/06/08 13:45:00;;;;;;;523.97;496.42;;;25.10;99.90;;;;;;5053914;28;20160;-70
2021/06/08 13:47:37;;;;;;;483.38;458.85;;;25.00;99.90;;;;;;5052644;28;20263;-70
2021/06/08 13:50:06;;;;;;;466.67;443.10;;;24.80;99.90;;;;;;5053375;28;20164;-70
2021/06/08 13:53:04;;;;;;;511.83;485.20;;;24.60;99.90;;;;;;5053801;28;20161;-70
2021/06/08 13:55:43;;;;;;;424.67;403.98;;;24.40;99.90;;;;;;5053799;28;20200;-69
2021/06/08 14:01:14;;;;;;;506.05;479.80;;;24.60;99.90;;;;;;5053736;28;20342;-69
2021/06/08 14:03:41;;;;;;;494.75;469.15;;;24.70;99.90;;;;;;5053682;28;20700;-69
2021/06/08 14:06:16;;;;;;;495.83;470.25;;;25.00;99.90;;;;;;5053655;28;20192;-69
2021/06/08 14:08:54;;;;;;;542.38;513.42;;;25.20;99.90;;;;;;5053579;28;20160;-70
2021/06/08 14:11:33;;;;;;;524.80;496.88;;;25.70;99.90;;;;;;5053485;28;20168;-70
2021/06/08 14:13:59;;;;;;;654.58;615.92;;;26.20;99.90;;;;;;5053467;28;20168;-70
2021/06/08 14:16:26;;;;;;;601.22;567.33;;;26.10;99.90;;;;;;5053501;28;20168;-70
2021/06/08 14:18:52;;;;;;;515.00;488.10;;;25.70;99.90;;;;;;5051951;28;20177;-70
2021/06/08 14:21:18;;;;;;;502.70;476.80;;;25.50;99.90;;;;;;5052070;28;20210;-70
2021/06/08 14:23:43;;;;;;;513.92;487.20;;;25.30;99.90;;;;;;5053211;28;20247;-71
2021/06/08 14:26:14;;;;;;;487.27;462.40;;;25.10;99.90;;;;;;5053186;28;20234;-77
2021/06/08 14:28:39;;;;;;;453.75;431.23;;;24.90;99.90;;;;;;5053040;28;20717;-75
2021/06/08 14:31:05;;;;;;;467.55;444.10;;;24.70;99.90;;;;;;5053152;28;20259;-74
2021/06/08 14:33:31;;;;;;;476.40;452.00;;;24.60;99.90;;;;;;5053063;28;20175;-73
2021/06/08 14:35:56;;;;;;;515.15;488.45;;;24.60;99.90;;;;;;5053082;28;20226;-71
2021/06/08 14:38:22;;;;;;;435.83;414.45;;;24.50;99.90;;;;;;5053030;28;20655;-71
2021/06/08 14:40:47;;;;;;;500.02;474.15;;;24.30;99.90;;;;;;5051586;28;20243;-71
2021/06/08 14:43:14;;;;;;;465.60;442.20;;;24.20;99.90;;;;;;5053125;28;20164;-69
2021/06/08 14:45:40;;;;;;;464.45;441.27;;;24.10;99.90;;;;;;5051590;28;20175;-69
2021/06/08 14:48:05;;;;;;;532.45;504.35;;;24.50;99.90;;;;;;5053064;28;20173;-70
2021/06/08 14:50:31;;;;;;;534.83;506.42;;;25.00;99.90;;;;;;5053072;28;20172;-72
2021/06/08 14:52:57;;;;;;;598.78;565.20;;;25.40;99.90;;;;;;5053001;28;20306;-80
2021/06/08 14:55:23;;;;;;;670.75;630.35;;;25.70;99.90;;;;;;5052923;28;20648;-69
2021/06/08 14:57:49;;;;;;;612.03;577.15;;;25.40;99.90;;;;;;5052937;28;20184;-70
2021/06/08 15:00:16;;;;;;;591.38;558.20;;;25.10;99.90;;;;;;5051527;28;20204;-69
2021/06/08 15:02:41;;;;;;;627.42;591.25;;;25.00;99.90;;;;;;5055463;28;20175;-70
2021/06/08 15:05:07;;;;;;;631.92;595.47;;;24.80;99.90;;;;;;5056819;28;20165;-70
2021/06/08 15:07:33;;;;;;;615.00;580.47;;;24.50;99.90;;;;;;5056966;28;20172;-70
2021/06/08 15:09:58;;;;;;;552.25;522.75;;;24.20;99.90;;;;;;5056885;28;20171;-72
2021/06/08 15:12:24;;;;;;;550.50;520.80;;;24.30;99.90;;;;;;5056809;28;20173;-71
2021/06/08 15:14:50;;;;;;;577.40;545.58;;;24.80;99.90;;;;;;5056791;28;20213;-71
2021/06/08 15:17:15;;;;;;;607.20;572.97;;;25.40;99.90;;;;;;5055438;28;20532;-71
2021/06/08 15:19:41;;;;;;;600.50;566.80;;;25.30;99.90;;;;;;5056485;28;20183;-71
2021/06/08 15:22:07;;;;;;;571.75;540.25;;;25.30;99.90;;;;;;5056627;28;20572;-73
2021/06/08 15:24:34;;;;;;;621.40;585.83;;;25.00;99.90;;;;;;5056602;28;20165;-72
2021/06/08 15:27:00;;;;;;;591.85;558.83;;;24.80;99.90;;;;;;5056526;28;20205;-72
2021/06/08 15:29:26;;;;;;;537.30;508.77;;;24.50;99.90;;;;;;5055294;28;20634;-69
2021/06/08 15:31:52;;;;;;;559.40;529.05;;;24.60;99.90;;;;;;5056474;28;20582;-69
2021/06/08 15:34:17;;;;;;;526.88;499.13;;;24.40;99.90;;;;;;5056455;28;20176;-69
2021/06/08 15:36:43;;;;;;;445.92;423.80;;;24.30;99.90;;;;;;5056390;28;20252;-69
2021/06/08 15:39:10;;;;;;;480.13;455.80;;;24.30;99.90;;;;;;5056277;28;20172;-69
2021/06/08 15:41:36;;;;;;;455.27;432.48;;;24.50;99.90;;;;;;5055827;28;20561;-69
2021/06/08 15:44:02;;;;;;;555.65;525.47;;;25.20;99.90;;;;;;5055803;28;20168;-70
2021/06/08 15:46:29;;;;;;;519.35;491.95;;;25.90;99.90;;;;;;5056049;28;20175;-69
2021/06/08 15:48:54;;;;;;;620.47;584.65;;;26.60;99.90;;;;;;5056190;28;20171;-69
2021/06/08 15:51:20;;;;;;;663.72;624.38;;;26.80;99.90;;;;;;5056163;28;20255;-69
2021/06/08 15:53:46;;;;;;;691.67;649.63;;;26.50;99.90;;;;;;5056045;28;20168;-69
2021/06/08 15:56:11;;;;;;;663.60;623.88;;;26.00;99.90;;;;;;5056027;28;20165;-69
2021/06/08 15:58:37;;;;;;;632.00;595.20;;;25.50;99.90;;;;;;5055999;28;20175;-69
2021/06/08 16:01:03;;;;;;;609.75;575.50;;;25.00;99.90;;;;;;5055842;28;20321;-69
2021/06/08 16:03:28;;;;;;;638.95;601.80;;;24.60;99.90;;;;;;5054680;28;20671;-69
2021/06/08 16:05:54;;;;;;;528.85;500.92;;;24.20;99.90;;;;;;5055872;28;20641;-69
2021/06/08 16:08:19;;;;;;;540.22;511.45;;;24.00;99.90;;;;;;5055795;28;20161;-69
2021/06/08 16:10:46;;;;;;;522.05;494.83;;;23.70;99.90;;;;;;5055750;28;20207;-69
2021/06/08 16:13:12;;;;;;;450.58;428.10;;;23.90;99.90;;;;;;5055193;28;20160;-69
2021/06/08 16:15:38;;;;;;;570.92;539.67;;;24.70;99.90;;;;;;5055589;28;20172;-69
2021/06/08 16:18:04;;;;;;;573.45;541.75;;;25.40;99.90;;;;;;5055425;28;20192;-69
2021/06/08 16:20:29;;;;;;;659.05;619.65;;;26.00;99.90;;;;;;5055440;28;20283;-69
2021/06/08 16:22:56;;;;;;;688.75;646.80;;;26.50;99.90;;;;;;5055524;28;20176;-69
2021/06/08 16:25:25;;;;;;;672.88;632.22;;;26.70;99.90;;;;;;5055446;28;20175;-69
2021/06/08 16:27:51;;;;;;;656.75;617.60;;;27.20;99.90;;;;;;5055221;28;20656;-69
2021/06/08 16:30:18;;;;;;;667.08;627.22;;;27.50;99.90;;;;;;5054755;28;20188;-72
2021/06/08 16:32:43;;;;;;;657.75;618.72;;;27.70;99.90;;;;;;5055250;28;20164;-72
2021/06/08 16:35:09;;;;;;;528.85;500.58;;;27.90;99.90;;;;;;5055311;28;20199;-71
2021/06/08 16:37:36;;;;;;;412.50;392.35;;;28.40;99.90;;;;;;5055555;28;20244;-72
2021/06/08 16:40:06;;;;;;;461.85;438.67;;;28.50;99.90;;;;;;5054964;28;20224;-72
2021/06/08 16:42:32;;;;;;;572.42;540.63;;;28.20;99.90;;;;;;5054955;28;20298;-72
2021/06/08 16:44:58;;;;;;;412.60;392.25;;;27.70;99.90;;;;;;5055099;28;20207;-71
2021/06/08 16:47:24;;;;;;;527.17;499.33;;;27.80;99.90;;;;;;5055032;28;20262;-72
2021/06/08 16:49:50;;;;;;;545.92;516.42;;;27.50;99.90;;;;;;5054972;28;20179;-72
2021/06/08 16:54:59;;;;;;;618.65;583.45;;;26.20;99.90;;;;;;5054885;28;20175;-71
2021/06/08 16:57:25;;;;;;;590.50;557.58;;;25.50;99.90;;;;;;5054856;28;20172;-71
2021/06/08 16:59:51;;;;;;;488.10;462.85;;;25.00;99.90;;;;;;5054691;28;20281;-71
2021/06/08 17:02:16;;;;;;;506.05;479.77;;;24.50;99.90;;;;;;5054187;28;20662;-71
2021/06/08 17:04:42;;;;;;;523.10;494.65;;;24.20;99.90;;;;;;5053475;28;20175;-71
2021/06/08 17:07:08;;;;;;;510.92;484.23;;;24.00;99.90;;;;;;5054756;28;20192;-71
2021/06/08 17:12:55;;;;;;;556.50;526.65;;;23.80;99.90;;;;;;5053883;28;20164;-71
2021/06/08 17:15:22;;;;;;;484.45;460.00;;;23.50;99.90;;;;;;5054328;28;20173;-71
2021/06/08 17:17:47;;;;;;;568.95;538.25;;;23.40;99.90;;;;;;5053874;28;20171;-71
2021/06/08 17:20:14;;;;;;;583.70;551.95;;;23.40;99.90;;;;;;5052934;28;20638;-71
2021/06/08 17:22:39;;;;;;;509.05;482.85;;;23.20;99.90;;;;;;5054336;28;20176;-71
2021/06/08 17:25:07;;;;;;;514.15;487.65;;;23.50;99.90;;;;;;5053490;28;20741;-70
2021/06/08 17:27:32;;;;;;;472.17;448.55;;;24.00;99.90;;;;;;5054209;28;20181;-71
2021/06/08 17:29:58;;;;;;;547.75;518.45;;;24.40;99.90;;;;;;5054035;28;20196;-71
2021/06/08 17:32:24;;;;;;;593.45;560.60;;;24.80;99.90;;;;;;5054181;28;20263;-71
2021/06/08 17:34:50;;;;;;;559.60;529.47;;;24.80;99.90;;;;;;5054100;28;20165;-71
2021/06/08 17:37:16;;;;;;;576.75;545.08;;;24.60;99.90;;;;;;5054119;28;20169;-71
2021/06/08 17:39:42;;;;;;;578.30;546.67;;;24.30;99.90;;;;;;5053795;28;20219;-71
2021/06/08 17:42:08;;;;;;;582.17;550.35;;;23.90;99.90;;;;;;5054092;28;20161;-71
2021/06/08 17:44:33;;;;;;;544.97;516.20;;;23.90;99.90;;;;;;5053968;28;20650;-71
2021/06/08 17:47:00;;;;;;;576.78;545.50;;;24.10;99.90;;;;;;5052617;28;20192;-71
2021/06/08 17:49:25;;;;;;;513.40;486.85;;;24.20;99.90;;;;;;5053957;28;20640;-70
2021/06/08 17:51:51;;;;;;;536.75;508.45;;;24.10;99.90;;;;;;5053860;28;20255;-71
2021/06/08 17:54:19;;;;;;;514.00;487.42;;;24.00;99.90;;;;;;5053855;28;20164;-70
2021/06/08 17:56:45;;;;;;;560.10;530.30;;;24.10;99.90;;;;;;5053723;28;20176;-71
2021/06/08 17:59:14;;;;;;;539.90;511.55;;;24.00;99.90;;;;;;5053733;28;20245;-71
2021/06/08 18:01:41;;;;;;;531.55;503.75;;;24.10;99.90;;;;;;5053641;28;20341;-71
2021/06/08 18:04:07;;;;;;;573.03;541.90;;;24.40;99.90;;;;;;5053687;28;20165;-71
2021/06/08 18:06:33;;;;;;;515.38;488.65;;;24.60;99.90;;;;;;5053699;28;20161;-72
2021/06/08 18:08:59;;;;;;;464.83;441.52;;;24.70;99.90;;;;;;5053657;28;20172;-71
2021/06/08 18:11:25;;;;;;;453.60;430.98;;;24.90;99.90;;;;;;5052318;28;20179;-72
2021/06/08 18:13:52;;;;;;;440.92;418.98;;;25.10;99.90;;;;;;5053535;28;20164;-71
2021/06/08 18:16:28;;;;;;;465.45;441.95;;;25.30;99.90;;;;;;5053413;28;20173;-71
2021/06/08 18:18:54;;;;;;;465.17;441.70;;;25.30;99.90;;;;;;5053394;28;20191;-71
2021/06/08 18:21:21;;;;;;;437.27;415.55;;;25.20;99.90;;;;;;5053282;28;20654;-71
2021/06/08 18:23:48;;;;;;;454.17;431.42;;;25.20;99.90;;;;;;5053404;28;20156;-71
2021/06/08 18:26:16;;;;;;;463.92;440.33;;;25.00;99.90;;;;;;5052106;28;20270;-71
2021/06/08 18:28:43;;;;;;;460.83;437.73;;;25.00;99.90;;;;;;5053245;28;20161;-72
2021/06/08 18:31:10;;;;;;;421.92;400.98;;;24.70;99.90;;;;;;5053214;28;20198;-71
2021/06/08 18:33:36;;;;;;;403.73;384.17;;;24.40;99.90;;;;;;5053268;28;20161;-71
2021/06/08 18:36:01;;;;;;;400.02;380.60;;;24.00;99.90;;;;;;5053078;28;20172;-71
2021/06/08 18:38:27;;;;;;;397.48;378.45;;;23.90;99.90;;;;;;5053272;28;20241;-71
2021/06/08 18:40:53;;;;;;;404.67;385.23;;;23.60;99.90;;;;;;5052951;28;20219;-71
2021/06/08 18:43:19;;;;;;;437.63;416.20;;;23.50;99.90;;;;;;5053078;28;20213;-71
2021/06/08 18:45:45;;;;;;;419.58;399.17;;;23.40;99.90;;;;;;5053183;28;20656;-71
2021/06/08 18:48:11;;;;;;;399.23;380.20;;;23.10;99.90;;;;;;5053228;28;20247;-71
2021/06/08 18:50:38;;;;;;;385.33;367.13;;;23.00;99.90;;;;;;5053057;28;20168;-71
2021/06/08 18:53:04;;;;;;;402.10;382.95;;;22.80;99.90;;;;;;5053086;28;20179;-71
2021/06/08 18:55:30;;;;;;;390.75;372.08;;;22.70;99.90;;;;;;5053059;28;20176;-71
2021/06/08 18:57:55;;;;;;;360.20;343.40;;;22.70;99.90;;;;;;5052908;28;20172;-71
2021/06/08 19:00:23;;;;;;;393.85;375.25;;;22.80;99.90;;;;;;5052828;28;20375;-71
2021/06/08 19:02:48;;;;;;;407.90;388.42;;;22.80;99.90;;;;;;5052810;28;20192;-71
2021/06/08 19:05:14;;;;;;;424.13;403.60;;;22.70;99.90;;;;;;5052827;28;20195;-71
2021/06/08 19:07:41;;;;;;;443.13;421.38;;;22.60;99.90;;;;;;5052752;28;20187;-72
2021/06/08 19:10:07;;;;;;;476.48;452.70;;;22.40;99.90;;;;;;5052737;28;20173;-72